Terminal Aerodrome Forecast
Issued by NWS Upton, NY

Home | Current Version | Previous Version | Text Only | Print | Product List | Glossary On
Versions: 1 2 3 4 5 6 7 8 9 10 11 12 13 14 15 16 17 18 19 20 21 22 23 24 25
000
FTUS41 KOKX 152326
TAFEWR
TAF
KEWR 152326Z 1600/1706 16006KT P6SM SCT060 SCT120 SCT250
     FM160100 18006KT P6SM SCT060 SCT250
     FM161500 18014G22KT P6SM SCT040
     FM162000 18016G24KT P6SM SHRA BKN040 PROB30 1620/1623
      30016G35KT TSRA BKN025CB
     FM170000 27011KT P6SM VCSH SCT025 BKN050
     FM170300 30010KT P6SM SCT060=

USA.gov is the U.S. government's official web portal to all federal, state and local government web resources and services.